Time;durP1;ratioP1;P1;durP2;ratioP2;P2;SDS_P1;SDS_P2;PMS_P1;PMS_P2;Temp;Humidity;BMP_temperature;BMP_pressure;BME280_temperature;BME280_humidity;BME280_pressure;Samples;Min_cycle;Max_cycle;Signal;HPM_P1;HPM_P2
2023/12/26 00:00:23;;;;;;;2.17;0.93;;;;;;;;;;5073933;28;20218;-78
2023/12/26 00:02:49;;;;;;;1.80;0.80;;;;;;;;;;5088677;28;20271;-76
2023/12/26 00:05:15;;;;;;;2.40;0.63;;;;;;;;;;5080586;28;20179;-78
2023/12/26 00:07:42;;;;;;;5.13;1.00;;;;;;;;;;5085877;28;20206;-78
2023/12/26 00:10:08;;;;;;;2.70;0.70;;;;;;;;;;5085437;28;20231;-78
2023/12/26 00:12:34;;;;;;;1.57;0.60;;;;;;;;;;5085578;28;20226;-78
2023/12/26 00:15:00;;;;;;;1.37;0.60;;;;;;;;;;5087665;28;20218;-77
2023/12/26 00:17:26;;;;;;;2.20;0.77;;;;;;;;;;5078139;28;20222;-78
2023/12/26 00:19:53;;;;;;;0.60;0.50;;;;;;;;;;5090050;28;20658;-78
2023/12/26 00:22:19;;;;;;;3.20;0.70;;;;;;;;;;5086352;28;20207;-78
2023/12/26 00:24:46;;;;;;;2.30;0.67;;;;;;;;;;5087800;28;20217;-78
2023/12/26 00:27:13;;;;;;;1.97;0.73;;;;;;;;;;5082638;28;20237;-77
2023/12/26 00:29:39;;;;;;;1.00;0.60;;;;;;;;;;5082379;28;20555;-79
2023/12/26 00:32:05;;;;;;;2.93;0.80;;;;;;;;;;5085235;28;20179;-78
2023/12/26 00:34:31;;;;;;;0.90;0.60;;;;;;;;;;5084242;28;20222;-79
2023/12/26 00:36:57;;;;;;;2.87;1.53;;;;;;;;;;5085618;28;20214;-78
2023/12/26 00:39:23;;;;;;;4.07;0.97;;;;;;;;;;5083692;28;20237;-79
2023/12/26 00:41:49;;;;;;;1.37;0.90;;;;;;;;;;5084809;28;20210;-79
2023/12/26 00:44:15;;;;;;;3.13;1.20;;;;;;;;;;5084945;28;20175;-79
2023/12/26 00:46:43;;;;;;;1.83;0.53;;;;;;;;;;5085727;28;20241;-78
2023/12/26 00:49:09;;;;;;;2.77;0.90;;;;;;;;;;5082931;28;20306;-79
2023/12/26 00:51:35;;;;;;;2.43;0.70;;;;;;;;;;5083506;28;20215;-78
2023/12/26 00:54:01;;;;;;;0.73;0.63;;;;;;;;;;5084625;28;20760;-78
2023/12/26 00:56:27;;;;;;;0.70;0.70;;;;;;;;;;5084974;28;20210;-79
2023/12/26 00:58:53;;;;;;;1.30;0.60;;;;;;;;;;5074131;28;20266;-78
2023/12/26 01:01:19;;;;;;;1.77;0.90;;;;;;;;;;5087416;28;20199;-78
2023/12/26 01:03:46;;;;;;;1.60;0.90;;;;;;;;;;5076797;28;20203;-79
2023/12/26 01:06:14;;;;;;;1.73;0.80;;;;;;;;;;5085647;28;20214;-78
2023/12/26 01:08:40;;;;;;;1.40;1.00;;;;;;;;;;5084669;28;21036;-78
2023/12/26 01:11:06;;;;;;;1.97;0.80;;;;;;;;;;5084950;28;20269;-79
2023/12/26 01:13:34;;;;;;;1.00;0.90;;;;;;;;;;5087176;28;20222;-78
2023/12/26 01:16:02;;;;;;;1.60;0.90;;;;;;;;;;5087357;28;20214;-78
2023/12/26 01:18:29;;;;;;;0.70;0.60;;;;;;;;;;5077562;28;20304;-79
2023/12/26 01:20:55;;;;;;;0.97;0.67;;;;;;;;;;5098992;28;20207;-79
2023/12/26 01:23:21;;;;;;;3.00;0.67;;;;;;;;;;5076042;28;20285;-79
2023/12/26 01:25:47;;;;;;;1.00;0.57;;;;;;;;;;5097208;28;20174;-79
2023/12/26 01:28:13;;;;;;;1.60;1.07;;;;;;;;;;5084194;28;20214;-79
2023/12/26 01:30:40;;;;;;;2.87;0.90;;;;;;;;;;5096378;28;20210;-79
2023/12/26 01:33:07;;;;;;;1.70;0.60;;;;;;;;;;5095659;28;20210;-79
2023/12/26 01:35:33;;;;;;;1.13;0.60;;;;;;;;;;5096182;28;20222;-79
2023/12/26 01:37:59;;;;;;;0.67;0.60;;;;;;;;;;5101034;28;20284;-78
2023/12/26 01:40:25;;;;;;;2.17;0.50;;;;;;;;;;5098301;28;20563;-81
2023/12/26 01:42:51;;;;;;;1.10;0.50;;;;;;;;;;5066844;28;20206;-80
2023/12/26 01:45:17;;;;;;;1.00;0.43;;;;;;;;;;5087181;28;20297;-80
2023/12/26 01:47:48;;;;;;;2.40;0.97;;;;;;;;;;5086885;28;20248;-79
2023/12/26 01:50:14;;;;;;;1.13;0.80;;;;;;;;;;5083055;28;20205;-79
2023/12/26 01:52:41;;;;;;;1.73;0.50;;;;;;;;;;5085278;28;20206;-79
2023/12/26 01:55:08;;;;;;;0.87;0.57;;;;;;;;;;5080092;28;20203;-80
2023/12/26 01:57:35;;;;;;;1.17;0.40;;;;;;;;;;5080245;28;20214;-79
2023/12/26 02:00:03;;;;;;;0.70;0.50;;;;;;;;;;5084677;28;20211;-79
2023/12/26 02:02:30;;;;;;;0.83;0.37;;;;;;;;;;5078185;28;20185;-80
2023/12/26 02:04:56;;;;;;;0.30;0.30;;;;;;;;;;5085464;28;20186;-79
2023/12/26 02:07:22;;;;;;;0.27;0.20;;;;;;;;;;5085782;28;20242;-79
2023/12/26 02:09:48;;;;;;;0.57;0.50;;;;;;;;;;5072119;28;20211;-79
2023/12/26 02:12:16;;;;;;;0.13;0.13;;;;;;;;;;5081353;28;20206;-77
2023/12/26 02:14:42;;;;;;;0.10;0.10;;;;;;;;;;5059666;28;20218;-79
2023/12/26 02:17:13;;;;;;;0.27;0.20;;;;;;;;;;5083568;28;20195;-80
2023/12/26 02:19:46;;;;;;;0.10;0.10;;;;;;;;;;5078160;28;20207;-80
2023/12/26 02:22:12;;;;;;;0.43;0.20;;;;;;;;;;5082631;28;20264;-79
2023/12/26 02:24:42;;;;;;;0.23;0.23;;;;;;;;;;5084491;28;20217;-80
2023/12/26 02:27:09;;;;;;;0.10;0.10;;;;;;;;;;5077934;28;20213;-79
2023/12/26 02:29:35;;;;;;;0.10;0.10;;;;;;;;;;5079595;28;20190;-80
2023/12/26 02:32:02;;;;;;;0.30;0.20;;;;;;;;;;5083251;28;20182;-78
2023/12/26 02:34:28;;;;;;;0.27;0.10;;;;;;;;;;5078383;28;20199;-78
2023/12/26 02:36:54;;;;;;;0.10;0.10;;;;;;;;;;5082053;28;20268;-78
2023/12/26 02:39:20;;;;;;;0.20;0.20;;;;;;;;;;5078242;28;20215;-78
2023/12/26 02:41:46;;;;;;;0.10;0.10;;;;;;;;;;5082237;28;20282;-78
2023/12/26 02:44:12;;;;;;;0.10;0.10;;;;;;;;;;5062410;28;20209;-77
2023/12/26 02:46:39;;;;;;;0.30;0.20;;;;;;;;;;5081962;28;20207;-79
2023/12/26 02:49:05;;;;;;;0.03;0.00;;;;;;;;;;5081937;28;20248;-77
2023/12/26 02:51:31;;;;;;;0.73;0.10;;;;;;;;;;5086285;28;20231;-78
2023/12/26 02:53:57;;;;;;;0.10;0.10;;;;;;;;;;5082731;28;20701;-79
2023/12/26 02:56:23;;;;;;;0.10;0.10;;;;;;;;;;5082513;28;20858;-79
2023/12/26 02:58:49;;;;;;;0.20;0.10;;;;;;;;;;5086292;28;20198;-78
2023/12/26 03:01:15;;;;;;;0.10;0.10;;;;;;;;;;5088912;28;20207;-78
2023/12/26 03:03:41;;;;;;;0.67;0.10;;;;;;;;;;5077995;28;20252;-79
2023/12/26 03:06:08;;;;;;;0.70;0.40;;;;;;;;;;5080232;28;20217;-79
2023/12/26 03:08:34;;;;;;;1.20;0.53;;;;;;;;;;5084129;28;20234;-79
2023/12/26 03:11:00;;;;;;;0.10;0.10;;;;;;;;;;5083355;28;20174;-78
2023/12/26 03:13:26;;;;;;;0.40;0.10;;;;;;;;;;5080116;28;20207;-78
2023/12/26 03:15:52;;;;;;;0.20;0.20;;;;;;;;;;5081225;28;20214;-78
2023/12/26 03:18:18;;;;;;;0.40;0.23;;;;;;;;;;5080640;28;20430;-78
2023/12/26 03:20:44;;;;;;;0.10;0.10;;;;;;;;;;5081146;28;20207;-78
2023/12/26 03:23:10;;;;;;;0.37;0.20;;;;;;;;;;5083026;28;20175;-78
2023/12/26 03:25:36;;;;;;;0.57;0.30;;;;;;;;;;5081705;28;20231;-78
2023/12/26 03:28:02;;;;;;;0.83;0.20;;;;;;;;;;5086165;28;20206;-78
2023/12/26 03:30:29;;;;;;;0.20;0.10;;;;;;;;;;5086487;28;20226;-78
2023/12/26 03:32:55;;;;;;;0.60;0.37;;;;;;;;;;5082519;28;20199;-78
2023/12/26 03:35:21;;;;;;;0.40;0.10;;;;;;;;;;5085823;28;20167;-78
2023/12/26 03:37:47;;;;;;;0.23;0.20;;;;;;;;;;5088276;28;20953;-78
2023/12/26 03:40:14;;;;;;;0.40;0.30;;;;;;;;;;5084738;28;20700;-77
2023/12/26 03:42:42;;;;;;;0.10;0.10;;;;;;;;;;5089709;28;20198;-79
2023/12/26 03:45:08;;;;;;;0.20;0.20;;;;;;;;;;5084754;28;20229;-78
2023/12/26 03:47:34;;;;;;;0.30;0.20;;;;;;;;;;5070637;28;20208;-78
2023/12/26 03:50:00;;;;;;;0.50;0.20;;;;;;;;;;5079236;28;20181;-79
2023/12/26 03:52:26;;;;;;;0.60;0.13;;;;;;;;;;5080872;28;20198;-79
2023/12/26 03:54:53;;;;;;;0.10;0.10;;;;;;;;;;5080636;28;20264;-78
2023/12/26 03:57:19;;;;;;;0.33;0.20;;;;;;;;;;5067565;28;20226;-78
2023/12/26 03:59:45;;;;;;;0.10;0.10;;;;;;;;;;5082713;28;20701;-78
2023/12/26 04:02:11;;;;;;;0.10;0.10;;;;;;;;;;5084550;28;20219;-78
2023/12/26 04:04:37;;;;;;;0.10;0.10;;;;;;;;;;5079714;28;20290;-79
2023/12/26 04:07:03;;;;;;;0.17;0.10;;;;;;;;;;5080011;28;20202;-78
2023/12/26 04:09:29;;;;;;;0.47;0.20;;;;;;;;;;5085399;28;20202;-79
2023/12/26 04:11:56;;;;;;;1.30;0.27;;;;;;;;;;5089909;28;20207;-79
2023/12/26 04:14:22;;;;;;;0.33;0.17;;;;;;;;;;5083950;28;20191;-78
2023/12/26 04:16:48;;;;;;;0.03;0.03;;;;;;;;;;5084388;28;20282;-78
2023/12/26 04:19:14;;;;;;;0.73;0.20;;;;;;;;;;5078298;28;20207;-78
2023/12/26 04:21:40;;;;;;;0.20;0.10;;;;;;;;;;5087161;28;20203;-79
2023/12/26 04:24:06;;;;;;;0.10;0.10;;;;;;;;;;5090162;28;20214;-78
2023/12/26 04:26:32;;;;;;;0.13;0.13;;;;;;;;;;5083366;28;20183;-79
2023/12/26 04:28:58;;;;;;;0.30;0.10;;;;;;;;;;5084825;28;20195;-79
2023/12/26 04:31:24;;;;;;;1.47;0.20;;;;;;;;;;5087739;28;20240;-79
2023/12/26 04:33:50;;;;;;;0.20;0.10;;;;;;;;;;5086181;28;20274;-78
2023/12/26 04:36:16;;;;;;;0.13;0.10;;;;;;;;;;5086754;28;20225;-78
2023/12/26 04:38:42;;;;;;;0.30;0.20;;;;;;;;;;5080845;28;20230;-78
2023/12/26 04:41:11;;;;;;;0.20;0.10;;;;;;;;;;5082256;28;20179;-78
2023/12/26 04:43:38;;;;;;;0.20;0.13;;;;;;;;;;5085778;28;20203;-78
2023/12/26 04:46:04;;;;;;;0.63;0.40;;;;;;;;;;5084977;28;20889;-79
2023/12/26 04:48:30;;;;;;;0.20;0.20;;;;;;;;;;5083668;28;20214;-79
2023/12/26 04:50:56;;;;;;;0.30;0.20;;;;;;;;;;5085079;28;20274;-79
2023/12/26 04:53:24;;;;;;;0.00;0.00;;;;;;;;;;5080818;28;20217;-78
2023/12/26 04:55:50;;;;;;;0.10;0.10;;;;;;;;;;5083437;28;20171;-78
2023/12/26 04:58:16;;;;;;;0.63;0.40;;;;;;;;;;5084492;28;20316;-78
2023/12/26 05:00:43;;;;;;;0.20;0.20;;;;;;;;;;5080400;28;20528;-79
2023/12/26 05:03:09;;;;;;;0.27;0.20;;;;;;;;;;5088752;28;20673;-78
2023/12/26 05:05:35;;;;;;;0.10;0.10;;;;;;;;;;5082036;28;20179;-78
2023/12/26 05:08:01;;;;;;;0.20;0.20;;;;;;;;;;5082300;28;20217;-78
2023/12/26 05:10:27;;;;;;;0.20;0.10;;;;;;;;;;5082488;28;20235;-79
2023/12/26 05:12:53;;;;;;;0.33;0.10;;;;;;;;;;5080292;28;20202;-79
2023/12/26 05:15:19;;;;;;;0.30;0.20;;;;;;;;;;5083691;28;20324;-78
2023/12/26 05:17:45;;;;;;;0.27;0.27;;;;;;;;;;5082959;28;20219;-78
2023/12/26 05:20:12;;;;;;;0.10;0.10;;;;;;;;;;5083237;28;20704;-79
2023/12/26 05:22:38;;;;;;;0.23;0.20;;;;;;;;;;5090802;28;20215;-79
2023/12/26 05:25:04;;;;;;;0.10;0.10;;;;;;;;;;5093680;28;20209;-79
2023/12/26 05:27:30;;;;;;;0.10;0.10;;;;;;;;;;5087695;28;20222;-77
2023/12/26 05:29:56;;;;;;;0.00;0.00;;;;;;;;;;5093334;28;20218;-80
2023/12/26 05:32:22;;;;;;;0.67;0.13;;;;;;;;;;5088964;28;20177;-79
2023/12/26 05:34:48;;;;;;;0.10;0.10;;;;;;;;;;5090111;28;20240;-79
2023/12/26 05:37:14;;;;;;;0.40;0.20;;;;;;;;;;5095837;28;20241;-78
2023/12/26 05:39:44;;;;;;;0.40;0.20;;;;;;;;;;5090884;28;20190;-79
2023/12/26 05:42:10;;;;;;;0.20;0.20;;;;;;;;;;5092769;28;20228;-79
2023/12/26 05:44:36;;;;;;;0.77;0.30;;;;;;;;;;5080646;28;20534;-78
2023/12/26 05:47:04;;;;;;;0.17;0.17;;;;;;;;;;5080017;28;20179;-78
2023/12/26 05:49:31;;;;;;;0.27;0.20;;;;;;;;;;5077547;28;20289;-78
2023/12/26 05:51:57;;;;;;;0.27;0.27;;;;;;;;;;5080590;28;20211;-79
2023/12/26 05:54:23;;;;;;;0.87;0.30;;;;;;;;;;5082593;28;20239;-79
2023/12/26 05:56:49;;;;;;;0.93;0.20;;;;;;;;;;5082150;28;20218;-79
2023/12/26 05:59:15;;;;;;;0.60;0.37;;;;;;;;;;5083584;28;20198;-79
2023/12/26 06:01:50;;;;;;;0.20;0.20;;;;;;;;;;5082640;28;20566;-79
2023/12/26 06:04:16;;;;;;;0.30;0.30;;;;;;;;;;5079804;28;20743;-79
2023/12/26 06:06:42;;;;;;;1.03;0.50;;;;;;;;;;5081700;28;20256;-78
2023/12/26 06:09:08;;;;;;;0.13;0.10;;;;;;;;;;5085378;28;20239;-79
2023/12/26 06:11:34;;;;;;;0.37;0.10;;;;;;;;;;5083783;28;20181;-78
2023/12/26 06:14:00;;;;;;;0.10;0.10;;;;;;;;;;5075835;28;20258;-78
2023/12/26 06:16:26;;;;;;;0.20;0.20;;;;;;;;;;5084722;28;20252;-79
2023/12/26 06:18:52;;;;;;;0.13;0.10;;;;;;;;;;5082693;28;20267;-79
2023/12/26 06:21:19;;;;;;;0.30;0.10;;;;;;;;;;5085430;28;20202;-78
2023/12/26 06:23:45;;;;;;;0.43;0.20;;;;;;;;;;5083387;28;20657;-79
2023/12/26 06:26:11;;;;;;;1.10;0.30;;;;;;;;;;5082739;28;20555;-79
2023/12/26 06:28:37;;;;;;;1.07;0.20;;;;;;;;;;5070820;28;20211;-78
2023/12/26 06:31:03;;;;;;;0.00;0.00;;;;;;;;;;5077731;28;20642;-78
2023/12/26 06:33:29;;;;;;;0.07;0.03;;;;;;;;;;5080130;28;20211;-78
2023/12/26 06:35:55;;;;;;;0.57;0.10;;;;;;;;;;5064001;28;20194;-79
2023/12/26 06:38:21;;;;;;;0.10;0.10;;;;;;;;;;5080171;28;20202;-78
2023/12/26 06:40:47;;;;;;;0.23;0.20;;;;;;;;;;5073874;28;20174;-78
2023/12/26 06:43:16;;;;;;;0.20;0.10;;;;;;;;;;5081164;28;20289;-78
2023/12/26 06:45:43;;;;;;;0.27;0.23;;;;;;;;;;5076891;28;20211;-78
2023/12/26 06:48:09;;;;;;;0.20;0.20;;;;;;;;;;5063157;28;20217;-78
2023/12/26 06:50:35;;;;;;;0.20;0.10;;;;;;;;;;5077647;28;20644;-78
2023/12/26 06:53:02;;;;;;;0.27;0.10;;;;;;;;;;5076250;28;20391;-78
2023/12/26 06:55:28;;;;;;;0.13;0.10;;;;;;;;;;5079897;28;20207;-78
2023/12/26 06:57:54;;;;;;;1.30;0.37;;;;;;;;;;5078777;28;20214;-78
2023/12/26 07:00:20;;;;;;;0.33;0.10;;;;;;;;;;5080473;28;20291;-78
2023/12/26 07:02:46;;;;;;;0.30;0.20;;;;;;;;;;5088300;28;20613;-78
2023/12/26 07:05:12;;;;;;;1.50;0.30;;;;;;;;;;5083728;28;20177;-78
2023/12/26 07:07:38;;;;;;;0.13;0.10;;;;;;;;;;5088120;28;20264;-78
2023/12/26 07:10:04;;;;;;;0.20;0.20;;;;;;;;;;5087046;28;20262;-79
2023/12/26 07:12:30;;;;;;;0.20;0.20;;;;;;;;;;5088448;28;20263;-78
2023/12/26 07:14:57;;;;;;;0.13;0.13;;;;;;;;;;5090731;28;20252;-78
2023/12/26 07:17:23;;;;;;;0.67;0.40;;;;;;;;;;5090177;28;20234;-78
2023/12/26 07:19:49;;;;;;;0.40;0.10;;;;;;;;;;5081258;28;20179;-79
2023/12/26 07:22:15;;;;;;;1.63;0.20;;;;;;;;;;5087845;28;20266;-78
2023/12/26 07:24:41;;;;;;;0.30;0.30;;;;;;;;;;5081432;28;20214;-78
2023/12/26 07:27:08;;;;;;;0.27;0.23;;;;;;;;;;5083439;28;20202;-78
2023/12/26 07:29:34;;;;;;;0.40;0.20;;;;;;;;;;5080373;28;20254;-78
2023/12/26 07:32:00;;;;;;;0.43;0.20;;;;;;;;;;5077604;28;20175;-79
2023/12/26 07:34:26;;;;;;;0.53;0.10;;;;;;;;;;5086066;28;20203;-77
2023/12/26 07:36:52;;;;;;;0.20;0.10;;;;;;;;;;5066768;28;20237;-78
2023/12/26 07:39:19;;;;;;;0.70;0.30;;;;;;;;;;5091087;28;20229;-78
2023/12/26 07:41:45;;;;;;;0.40;0.30;;;;;;;;;;5091244;28;20249;-78
2023/12/26 07:44:11;;;;;;;0.30;0.30;;;;;;;;;;5101005;28;20175;-78
2023/12/26 07:46:37;;;;;;;0.30;0.20;;;;;;;;;;5077558;28;20233;-79
2023/12/26 07:49:03;;;;;;;0.40;0.23;;;;;;;;;;5079424;28;20235;-79
2023/12/26 07:51:29;;;;;;;0.57;0.23;;;;;;;;;;5087753;28;20275;-79
2023/12/26 07:53:55;;;;;;;0.30;0.20;;;;;;;;;;5087663;28;20207;-79
2023/12/26 07:56:21;;;;;;;1.40;0.47;;;;;;;;;;5098056;28;20191;-77
2023/12/26 07:58:47;;;;;;;0.83;0.83;;;;;;;;;;5091270;28;20551;-79
2023/12/26 08:01:13;;;;;;;0.20;0.20;;;;;;;;;;5095884;28;20262;-79
2023/12/26 08:03:40;;;;;;;0.20;0.20;;;;;;;;;;5094727;28;20218;-79
2023/12/26 08:06:06;;;;;;;0.30;0.30;;;;;;;;;;5097473;28;20203;-79
2023/12/26 08:08:32;;;;;;;0.30;0.30;;;;;;;;;;5100642;28;20205;-79
2023/12/26 08:10:58;;;;;;;0.47;0.23;;;;;;;;;;5094101;28;20159;-78
2023/12/26 08:13:24;;;;;;;0.67;0.30;;;;;;;;;;5083941;28;20301;-78
2023/12/26 08:15:50;;;;;;;0.67;0.37;;;;;;;;;;5083103;28;20191;-79
2023/12/26 08:18:16;;;;;;;0.57;0.37;;;;;;;;;;5088982;28;20321;-79
2023/12/26 08:20:42;;;;;;;0.50;0.30;;;;;;;;;;5081986;28;20265;-79
2023/12/26 08:23:08;;;;;;;0.97;0.43;;;;;;;;;;5090387;28;20320;-78
2023/12/26 08:25:35;;;;;;;0.30;0.30;;;;;;;;;;5066678;28;20457;-79
2023/12/26 08:28:01;;;;;;;0.83;0.20;;;;;;;;;;5085629;28;20232;-79
2023/12/26 08:30:27;;;;;;;2.43;0.50;;;;;;;;;;5079614;28;20215;-78
2023/12/26 08:32:53;;;;;;;2.73;0.40;;;;;;;;;;5081279;28;20230;-78
2023/12/26 08:35:19;;;;;;;0.30;0.30;;;;;;;;;;5082787;28;20182;-78
2023/12/26 08:37:45;;;;;;;1.80;0.50;;;;;;;;;;5086859;28;20226;-78
2023/12/26 08:40:11;;;;;;;1.87;0.60;;;;;;;;;;5089207;28;20201;-79
2023/12/26 08:42:37;;;;;;;1.07;0.40;;;;;;;;;;5084051;28;20240;-79
2023/12/26 08:45:03;;;;;;;2.30;0.60;;;;;;;;;;5069302;28;20561;-78
2023/12/26 08:47:29;;;;;;;1.53;0.40;;;;;;;;;;5088747;28;20220;-78
2023/12/26 08:49:56;;;;;;;0.97;0.60;;;;;;;;;;5080522;28;20224;-78
2023/12/26 08:52:23;;;;;;;0.40;0.30;;;;;;;;;;5090283;28;20263;-78
2023/12/26 08:54:49;;;;;;;3.77;0.50;;;;;;;;;;5086397;28;20222;-79
2023/12/26 08:57:15;;;;;;;0.63;0.33;;;;;;;;;;5085484;28;20682;-77
2023/12/26 08:59:41;;;;;;;2.27;0.50;;;;;;;;;;5085532;28;20685;-78
2023/12/26 09:02:08;;;;;;;1.43;0.63;;;;;;;;;;5086677;28;20247;-79
2023/12/26 09:04:34;;;;;;;3.53;0.47;;;;;;;;;;5083166;28;20218;-78
2023/12/26 09:07:00;;;;;;;0.40;0.30;;;;;;;;;;5086471;28;20266;-78
2023/12/26 09:09:26;;;;;;;1.33;0.87;;;;;;;;;;5090141;28;20276;-78
2023/12/26 09:11:56;;;;;;;1.17;0.53;;;;;;;;;;5088134;28;20207;-78
2023/12/26 09:14:22;;;;;;;2.40;0.60;;;;;;;;;;5089488;28;20187;-79
2023/12/26 09:16:48;;;;;;;1.17;0.83;;;;;;;;;;5088720;28;20198;-78
2023/12/26 09:19:15;;;;;;;3.00;1.40;;;;;;;;;;5090696;28;20206;-78
2023/12/26 09:21:42;;;;;;;1.50;0.40;;;;;;;;;;5097485;28;20210;-79
2023/12/26 09:24:08;;;;;;;2.70;0.80;;;;;;;;;;5090292;28;20252;-79
2023/12/26 09:26:34;;;;;;;3.87;1.03;;;;;;;;;;5089317;28;20184;-79
2023/12/26 09:29:00;;;;;;;2.43;0.83;;;;;;;;;;5097628;28;20183;-79
2023/12/26 09:31:26;;;;;;;1.80;0.40;;;;;;;;;;5092344;28;20211;-77
2023/12/26 09:33:52;;;;;;;2.20;0.67;;;;;;;;;;5097210;28;20206;-79
2023/12/26 09:36:18;;;;;;;2.13;0.90;;;;;;;;;;5095436;28;20210;-78
2023/12/26 09:38:44;;;;;;;2.63;0.60;;;;;;;;;;5094167;28;20296;-80
2023/12/26 09:41:13;;;;;;;2.80;0.50;;;;;;;;;;5102873;28;20168;-81
2023/12/26 09:43:40;;;;;;;3.80;0.97;;;;;;;;;;5073729;28;20198;-79
2023/12/26 09:46:07;;;;;;;1.23;0.60;;;;;;;;;;5082688;28;20212;-78
2023/12/26 09:48:33;;;;;;;1.50;0.53;;;;;;;;;;5067710;28;20207;-78
2023/12/26 09:51:01;;;;;;;1.87;0.70;;;;;;;;;;5076517;28;20203;-77
2023/12/26 09:53:29;;;;;;;1.63;0.53;;;;;;;;;;5081461;28;20203;-78
2023/12/26 09:55:55;;;;;;;2.77;0.60;;;;;;;;;;5074557;28;20206;-78
2023/12/26 09:58:21;;;;;;;4.20;0.70;;;;;;;;;;5062614;28;20206;-78
2023/12/26 10:00:49;;;;;;;2.47;0.70;;;;;;;;;;5083981;28;20755;-78
2023/12/26 10:03:15;;;;;;;3.60;0.90;;;;;;;;;;5083622;28;20262;-78
2023/12/26 10:05:41;;;;;;;1.20;1.00;;;;;;;;;;5079851;28;20215;-78
2023/12/26 10:08:07;;;;;;;1.30;0.50;;;;;;;;;;5082807;28;20290;-78
2023/12/26 10:10:33;;;;;;;2.97;0.63;;;;;;;;;;5084687;28;20596;-78
2023/12/26 10:13:00;;;;;;;4.80;0.93;;;;;;;;;;5082485;28;20202;-78
2023/12/26 10:15:27;;;;;;;1.93;0.77;;;;;;;;;;5085020;28;20309;-78
2023/12/26 10:17:53;;;;;;;2.17;1.10;;;;;;;;;;5081132;28;20214;-78
2023/12/26 10:20:20;;;;;;;6.47;1.20;;;;;;;;;;5082367;28;20189;-79
2023/12/26 10:22:46;;;;;;;2.07;0.80;;;;;;;;;;5083960;28;20171;-78
2023/12/26 10:25:13;;;;;;;1.27;0.50;;;;;;;;;;5083355;28;20207;-79
2023/12/26 10:27:40;;;;;;;1.60;0.57;;;;;;;;;;5087810;28;20230;-78
2023/12/26 10:30:06;;;;;;;2.20;0.80;;;;;;;;;;5078187;28;20211;-78
2023/12/26 10:32:33;;;;;;;3.43;0.67;;;;;;;;;;5082395;28;20221;-78
2023/12/26 10:35:15;;;;;;;4.87;0.97;;;;;;;;;;5064740;28;20554;-78
2023/12/26 10:37:41;;;;;;;4.97;1.10;;;;;;;;;;5079609;28;20267;-78
2023/12/26 10:40:08;;;;;;;3.73;1.83;;;;;;;;;;5077897;28;20207;-78
2023/12/26 10:42:41;;;;;;;4.70;0.77;;;;;;;;;;5082832;28;20209;-78
2023/12/26 10:45:08;;;;;;;6.37;1.40;;;;;;;;;;5084030;28;20220;-78
2023/12/26 10:47:35;;;;;;;5.23;1.73;;;;;;;;;;5080529;28;20198;-78
2023/12/26 10:50:01;;;;;;;3.27;0.90;;;;;;;;;;5082156;28;20221;-78
2023/12/26 10:52:28;;;;;;;2.40;1.00;;;;;;;;;;5086696;28;20361;-79
2023/12/26 10:54:59;;;;;;;2.47;0.67;;;;;;;;;;5085702;28;20206;-78
2023/12/26 10:57:25;;;;;;;8.27;1.40;;;;;;;;;;5080651;28;20222;-79
2023/12/26 13:51:26;;;;;;;4.93;1.53;;;;;;;;;;5081008;28;20232;-79
2023/12/26 13:53:52;;;;;;;3.00;0.80;;;;;;;;;;5072082;28;20211;-79
2023/12/26 13:56:21;;;;;;;2.80;0.90;;;;;;;;;;5089556;28;20184;-79
2023/12/26 13:58:47;;;;;;;4.13;0.87;;;;;;;;;;5090053;28;20305;-79
2023/12/26 14:01:19;;;;;;;4.57;0.80;;;;;;;;;;5091108;28;20199;-79
2023/12/26 14:03:49;;;;;;;3.93;0.80;;;;;;;;;;5088514;28;20263;-79
2023/12/26 14:06:17;;;;;;;2.27;0.80;;;;;;;;;;5090309;28;20195;-79
2023/12/26 14:08:42;;;;;;;3.30;1.33;;;;;;;;;;5087036;28;20211;-78
2023/12/26 14:11:08;;;;;;;5.07;1.10;;;;;;;;;;5095277;28;20182;-78
2023/12/26 14:13:34;;;;;;;0.80;0.60;;;;;;;;;;5092089;28;20309;-79
2023/12/26 14:16:00;;;;;;;4.30;0.87;;;;;;;;;;5085629;28;20207;-78
2023/12/26 14:18:26;;;;;;;3.07;1.00;;;;;;;;;;5091148;28;20229;-79
2023/12/26 14:20:52;;;;;;;4.43;0.83;;;;;;;;;;5091819;28;20285;-78
2023/12/26 14:23:18;;;;;;;4.27;1.03;;;;;;;;;;5088187;28;20178;-78
2023/12/26 14:25:44;;;;;;;3.87;1.17;;;;;;;;;;5084832;28;20260;-78
2023/12/26 14:28:10;;;;;;;4.37;0.93;;;;;;;;;;5079333;28;20219;-78
2023/12/26 14:30:36;;;;;;;6.17;0.90;;;;;;;;;;5080954;28;20210;-77
2023/12/26 14:33:02;;;;;;;2.37;0.50;;;;;;;;;;5083312;28;20235;-78
2023/12/26 14:35:28;;;;;;;5.10;0.70;;;;;;;;;;5087054;28;20183;-78
2023/12/26 14:37:53;;;;;;;12.83;1.10;;;;;;;;;;5079947;28;20209;-78
2023/12/26 14:40:19;;;;;;;3.30;0.60;;;;;;;;;;5066347;28;20275;-79
2023/12/26 14:42:45;;;;;;;3.83;1.23;;;;;;;;;;5085664;28;20656;-79
2023/12/26 14:45:11;;;;;;;7.57;1.57;;;;;;;;;;5087340;28;20672;-78
2023/12/26 14:47:37;;;;;;;3.07;1.10;;;;;;;;;;5083011;28;20227;-78
2023/12/26 14:50:03;;;;;;;4.83;1.30;;;;;;;;;;5084655;28;20180;-78
2023/12/26 14:52:29;;;;;;;6.07;1.10;;;;;;;;;;5085573;28;20241;-78
2023/12/26 14:54:55;;;;;;;4.63;1.07;;;;;;;;;;5082487;28;20226;-78
2023/12/26 14:57:21;;;;;;;7.20;1.40;;;;;;;;;;5074216;28;20296;-78
2023/12/26 14:59:47;;;;;;;6.87;0.70;;;;;;;;;;5086107;28;20210;-78
2023/12/26 15:02:13;;;;;;;4.93;1.10;;;;;;;;;;5082117;28;20174;-77
2023/12/26 15:04:39;;;;;;;6.07;0.90;;;;;;;;;;5081520;28;20271;-78
2023/12/26 15:07:05;;;;;;;1.77;0.90;;;;;;;;;;5082112;28;20206;-78
2023/12/26 15:09:31;;;;;;;7.57;1.40;;;;;;;;;;5086017;28;20209;-78
2023/12/26 15:11:57;;;;;;;5.43;1.13;;;;;;;;;;5081122;28;20203;-78
2023/12/26 15:14:23;;;;;;;7.37;1.40;;;;;;;;;;5082484;28;20190;-79
2023/12/26 15:16:50;;;;;;;3.50;0.87;;;;;;;;;;5060403;28;20202;-78
2023/12/26 15:19:16;;;;;;;3.90;0.70;;;;;;;;;;5082441;28;20203;-78
2023/12/26 15:21:43;;;;;;;3.43;1.23;;;;;;;;;;5084888;28;20206;-78
2023/12/26 15:24:10;;;;;;;1.53;0.93;;;;;;;;;;5083520;28;20203;-78
2023/12/26 15:26:36;;;;;;;5.43;1.20;;;;;;;;;;5084074;28;20183;-78
2023/12/26 15:29:02;;;;;;;3.30;0.90;;;;;;;;;;5085067;28;20199;-78
2023/12/26 15:31:28;;;;;;;4.00;0.97;;;;;;;;;;5088654;28;20331;-78
2023/12/26 15:33:54;;;;;;;2.47;1.10;;;;;;;;;;5082322;28;20250;-78
2023/12/26 15:36:22;;;;;;;3.50;1.30;;;;;;;;;;5071921;28;20213;-78
2023/12/26 15:38:48;;;;;;;4.33;1.27;;;;;;;;;;5081970;28;20234;-79
2023/12/26 15:41:14;;;;;;;2.90;1.00;;;;;;;;;;5084140;28;20258;-78
2023/12/26 15:43:41;;;;;;;3.43;1.03;;;;;;;;;;5063850;28;20202;-79
2023/12/26 15:46:20;;;;;;;5.13;1.20;;;;;;;;;;5085419;28;20696;-78
2023/12/26 15:48:47;;;;;;;6.77;1.40;;;;;;;;;;5078663;28;20310;-78
2023/12/26 15:51:16;;;;;;;2.43;0.87;;;;;;;;;;5080969;28;20204;-79
2023/12/26 15:53:42;;;;;;;3.07;1.00;;;;;;;;;;5084991;28;20222;-78
2023/12/26 15:56:08;;;;;;;8.73;1.30;;;;;;;;;;5082876;28;20171;-78
2023/12/26 15:58:35;;;;;;;9.13;1.53;;;;;;;;;;5081650;28;20289;-78
2023/12/26 16:01:01;;;;;;;6.07;1.10;;;;;;;;;;5080512;28;20203;-79
2023/12/26 16:03:27;;;;;;;4.23;0.90;;;;;;;;;;5087192;28;20213;-78
2023/12/26 16:05:53;;;;;;;6.47;1.10;;;;;;;;;;5087613;28;20266;-79
2023/12/26 16:08:22;;;;;;;3.90;1.37;;;;;;;;;;5067999;28;20202;-78
2023/12/26 16:10:49;;;;;;;4.90;1.17;;;;;;;;;;5086182;28;20175;-78
2023/12/26 16:13:16;;;;;;;3.00;1.33;;;;;;;;;;5092563;28;20198;-78
2023/12/26 16:15:42;;;;;;;4.67;1.13;;;;;;;;;;5085821;28;20210;-78
2023/12/26 16:18:08;;;;;;;2.30;1.10;;;;;;;;;;5076519;28;20215;-78
2023/12/26 16:20:34;;;;;;;4.97;1.10;;;;;;;;;;5088646;28;20210;-78
2023/12/26 16:23:01;;;;;;;2.87;0.90;;;;;;;;;;5082342;28;20179;-78
2023/12/26 16:25:27;;;;;;;3.90;1.20;;;;;;;;;;5085401;28;20268;-78
2023/12/26 16:27:53;;;;;;;4.33;1.47;;;;;;;;;;5080909;28;20211;-78
2023/12/26 16:30:19;;;;;;;6.10;0.83;;;;;;;;;;5083454;28;20356;-78
2023/12/26 16:32:45;;;;;;;5.40;1.40;;;;;;;;;;5087962;28;20207;-79
2023/12/26 16:35:11;;;;;;;2.70;1.50;;;;;;;;;;5084240;28;20224;-78
2023/12/26 16:37:37;;;;;;;5.57;1.30;;;;;;;;;;5086217;28;20645;-77
2023/12/26 16:40:03;;;;;;;6.13;1.20;;;;;;;;;;5083760;28;20221;-78
2023/12/26 16:42:30;;;;;;;2.07;0.93;;;;;;;;;;5083595;28;20207;-78
2023/12/26 16:44:56;;;;;;;3.87;1.10;;;;;;;;;;5085213;28;20592;-79
2023/12/26 16:47:22;;;;;;;4.93;0.90;;;;;;;;;;5085409;28;20182;-78
2023/12/26 16:49:48;;;;;;;5.07;1.23;;;;;;;;;;5082405;28;20179;-78
2023/12/26 16:52:14;;;;;;;3.03;0.83;;;;;;;;;;5088167;28;20645;-78
2023/12/26 16:54:40;;;;;;;4.83;1.30;;;;;;;;;;5082632;28;20213;-78
2023/12/26 16:57:06;;;;;;;5.97;1.10;;;;;;;;;;5087334;28;20237;-78
2023/12/26 16:59:32;;;;;;;4.33;1.27;;;;;;;;;;5084836;28;20664;-78
2023/12/26 17:01:59;;;;;;;3.33;0.90;;;;;;;;;;5085720;28;20183;-78
2023/12/26 17:04:25;;;;;;;6.33;1.20;;;;;;;;;;5081952;28;20308;-78
2023/12/26 17:06:51;;;;;;;3.83;1.20;;;;;;;;;;5083890;28;20636;-78
2023/12/26 17:09:17;;;;;;;2.17;1.27;;;;;;;;;;5088804;28;20630;-78
2023/12/26 17:11:47;;;;;;;1.87;1.10;;;;;;;;;;5085985;28;20289;-79
2023/12/26 17:14:13;;;;;;;4.37;1.23;;;;;;;;;;5087060;28;20222;-78
2023/12/26 17:16:41;;;;;;;4.23;1.13;;;;;;;;;;5085249;28;20225;-78
2023/12/26 17:19:07;;;;;;;3.17;1.30;;;;;;;;;;5089273;28;20217;-78
2023/12/26 17:21:33;;;;;;;2.40;0.80;;;;;;;;;;5091824;28;20209;-79
2023/12/26 17:23:59;;;;;;;4.63;1.10;;;;;;;;;;5086934;28;20233;-78
2023/12/26 17:26:25;;;;;;;6.00;1.13;;;;;;;;;;5092992;28;20273;-78
2023/12/26 17:28:54;;;;;;;2.33;1.10;;;;;;;;;;5091075;28;20202;-78